createdAt,value
2022-08-20T00:02:26.751Z,100972.69
2022-08-20T00:07:28.270Z,100973.50
2022-08-20T00:12:29.813Z,100971.22
2022-08-20T00:17:37.566Z,100972.03
2022-08-20T00:22:39.170Z,100972.03
2022-08-20T00:27:40.696Z,100963.06
2022-08-20T00:32:49.966Z,100958.75
2022-08-20T00:37:51.544Z,100963.13
2022-08-20T00:42:57.310Z,100951.72
2022-08-20T00:47:58.970Z,100963.88
2022-08-20T00:53:00.780Z,100955.22
2022-08-20T00:58:05.304Z,100954.19
2022-08-20T01:03:09.742Z,100952.88
2022-08-20T01:08:11.627Z,100958.88
2022-08-20T01:13:14.730Z,100942.59
2022-08-20T01:18:19.547Z,100957.63
2022-08-20T01:23:38.684Z,100947.38
2022-08-20T01:28:43.987Z,100947.06
2022-08-20T01:33:45.575Z,100950.69
2022-08-20T01:38:53.140Z,100958.19
2022-08-20T01:43:57.014Z,100955.97
2022-08-20T01:48:59.946Z,100955.16
2022-08-20T01:54:01.490Z,100959.38
2022-08-20T01:59:06.579Z,100960.22
2022-08-20T02:04:09.337Z,100965.72
2022-08-20T02:09:17.065Z,100963.44
2022-08-20T02:14:20.133Z,100965.97
2022-08-20T02:19:24.796Z,100973.81
2022-08-20T02:24:26.490Z,100973.00
2022-08-20T02:29:28.076Z,100971.84
2022-08-20T02:34:29.605Z,100971.25
2022-08-20T02:39:31.131Z,100987.47
2022-08-20T02:44:32.722Z,100990.31
2022-08-20T02:49:34.919Z,100991.41
2022-08-20T02:54:36.450Z,100978.19
2022-08-20T02:59:38.776Z,100988.63
2022-08-20T03:04:40.484Z,100984.34
2022-08-20T03:09:42.011Z,100981.19
2022-08-20T03:14:43.739Z,100986.00
2022-08-20T03:19:45.246Z,100988.00
2022-08-20T03:24:46.757Z,100978.72
2022-08-20T03:29:48.274Z,100987.47
2022-08-20T03:34:49.795Z,100989.94
2022-08-20T03:39:52.060Z,100982.34
2022-08-20T03:44:58.542Z,100997.78
2022-08-20T03:50:00.958Z,100988.09
2022-08-20T03:55:02.536Z,100988.88
2022-08-20T04:00:04.929Z,100995.34
2022-08-20T04:05:06.710Z,100995.63
2022-08-20T04:10:09.957Z,101008.78
2022-08-20T04:15:12.971Z,101010.53
2022-08-20T04:20:18.654Z,101010.38
2022-08-20T04:25:20.944Z,101011.66
2022-08-20T04:30:25.759Z,101017.41
2022-08-20T04:35:27.298Z,101010.59
2022-08-20T04:40:47.382Z,101019.25
2022-08-20T04:45:48.923Z,101019.50
2022-08-20T04:50:50.797Z,101013.00
2022-08-20T04:55:52.655Z,101015.19
2022-08-20T05:00:55.634Z,101026.06
2022-08-20T05:06:03.309Z,101030.41
2022-08-20T05:11:32.619Z,101028.69
2022-08-20T05:16:26.626Z,101033.47
2022-08-20T05:21:28.145Z,101037.44
2022-08-20T05:26:29.676Z,101045.66
2022-08-20T05:31:33.547Z,101053.84
2022-08-20T05:36:36.303Z,101056.63
2022-08-20T05:41:38.465Z,101043.59
2022-08-20T05:46:40.865Z,101046.44
2022-08-20T05:51:43.146Z,101061.94
2022-08-20T05:56:44.662Z,101070.81
2022-08-20T06:01:46.230Z,101070.75
2022-08-20T06:06:47.845Z,101075.97
2022-08-20T06:11:49.418Z,101059.69
2022-08-20T06:16:57.406Z,101066.66
2022-08-20T06:22:00.964Z,101070.94
2022-08-20T06:27:03.850Z,101074.69
2022-08-20T06:32:05.459Z,101074.31
2022-08-20T06:37:16.523Z,101069.38
2022-08-20T06:42:20.853Z,101072.13
2022-08-20T06:47:22.760Z,101064.50
2022-08-20T06:52:29.974Z,101077.56
2022-08-20T06:57:47.797Z,101069.78
2022-08-20T07:02:49.381Z,101060.19
2022-08-20T07:07:51.067Z,101072.28
2022-08-20T07:12:52.657Z,101067.38
2022-08-20T07:18:00.365Z,101083.63
2022-08-20T07:23:02.899Z,101086.63
2022-08-20T07:28:06.186Z,101092.97
2022-08-20T07:33:08.015Z,101087.41
2022-08-20T07:38:18.127Z,101085.22
2022-08-20T07:43:20.046Z,101083.28
2022-08-20T07:48:31.286Z,101084.50
2022-08-20T07:53:36.393Z,101092.59
2022-08-20T07:58:39.271Z,101105.03
2022-08-20T08:03:49.820Z,101109.97
2022-08-20T08:08:52.226Z,101108.31
2022-08-20T08:13:53.847Z,101109.69
2022-08-20T08:18:56.669Z,101120.47
2022-08-20T08:23:58.444Z,101120.94
2022-08-20T08:28:59.975Z,101127.56
2022-08-20T08:34:01.503Z,101137.63
2022-08-20T08:39:03.050Z,101143.03
2022-08-20T08:44:09.408Z,101146.69
2022-08-20T08:49:13.585Z,101147.50
2022-08-20T08:54:22.920Z,101158.47
2022-08-20T08:59:24.678Z,101151.13
2022-08-20T09:04:34.664Z,101154.53
2022-08-20T09:09:37.193Z,101163.41
2022-08-20T09:14:38.915Z,101168.91
2022-08-20T09:19:40.329Z,101163.38
2022-08-20T09:24:42.155Z,101172.44
2022-08-20T09:29:43.557Z,101173.34
2022-08-20T09:34:47.451Z,101174.50
2022-08-20T09:39:49.055Z,101176.56
2022-08-20T09:44:50.737Z,101185.59
2022-08-20T09:49:52.380Z,101193.13
2022-08-20T09:54:56.732Z,101191.94
2022-08-20T10:00:01.434Z,101197.38
2022-08-20T10:05:03.282Z,101189.81
2022-08-20T10:10:06.222Z,101203.97
2022-08-20T10:15:08.323Z,101194.84
2022-08-20T10:20:11.414Z,101200.91
2022-08-20T10:25:13.585Z,101202.50
2022-08-20T10:30:16.381Z,101207.69
2022-08-20T10:35:18.011Z,101202.47
2022-08-20T10:40:19.598Z,101215.31
2022-08-20T10:45:21.055Z,101212.06
2022-08-20T10:50:23.025Z,101219.31
2022-08-20T10:55:24.638Z,101228.47
2022-08-20T11:00:26.114Z,101227.00
2022-08-20T11:05:27.782Z,101223.50
2022-08-20T11:10:29.402Z,101229.22
2022-08-20T11:15:30.970Z,101235.06
2022-08-20T11:20:32.386Z,101235.19
2022-08-20T11:25:34.025Z,101239.53
2022-08-20T11:30:36.130Z,101237.53
2022-08-20T11:35:49.509Z,101241.63
2022-08-20T11:40:51.703Z,101239.28
2022-08-20T11:45:54.632Z,101237.34
2022-08-20T11:50:56.244Z,101233.72
2022-08-20T11:55:57.861Z,101228.41
2022-08-20T12:01:00.376Z,101236.09
2022-08-20T12:06:01.759Z,101233.56
2022-08-20T12:11:03.355Z,101242.34
2022-08-20T12:16:05.021Z,101242.50
2022-08-20T12:21:06.541Z,101245.41
2022-08-20T12:26:07.921Z,101249.69
2022-08-20T12:31:09.430Z,101240.56
2022-08-20T12:36:11.125Z,101244.44
2022-08-20T12:41:12.626Z,101243.88
2022-08-20T12:46:14.138Z,101236.16
2022-08-20T12:51:15.673Z,101241.69
2022-08-20T12:56:17.183Z,101236.34
2022-08-20T13:01:18.737Z,101250.94
2022-08-20T13:06:20.300Z,101251.09
2022-08-20T13:11:24.308Z,101245.22
2022-08-20T13:16:25.848Z,101237.09
2022-08-20T13:21:27.449Z,101242.34
2022-08-20T13:26:28.975Z,101243.38
2022-08-20T13:31:30.533Z,101245.97
2022-08-20T13:36:32.103Z,101247.69
2022-08-20T13:41:33.778Z,101244.66
2022-08-20T13:46:35.280Z,101245.91
2022-08-20T13:51:36.810Z,101228.03
2022-08-20T13:56:38.396Z,101230.47
2022-08-20T14:01:40.014Z,101229.03
2022-08-20T14:06:41.655Z,101241.81
2022-08-20T14:11:43.182Z,101233.88
2022-08-20T14:16:44.725Z,101235.34
2022-08-20T14:21:46.252Z,101234.84
2022-08-20T14:26:47.776Z,101238.53
2022-08-20T14:31:49.608Z,101239.69
2022-08-20T14:36:51.126Z,101244.31
2022-08-20T14:41:52.708Z,101239.94
2022-08-20T14:46:54.239Z,101243.16
2022-08-20T14:51:55.800Z,101244.41
2022-08-20T14:57:02.172Z,101237.41
2022-08-20T15:02:05.003Z,101252.44
2022-08-20T15:07:10.851Z,101244.97
2022-08-20T15:12:12.716Z,101254.78
2022-08-20T15:17:25.757Z,101247.56
2022-08-20T15:22:27.312Z,101249.91
2022-08-20T15:27:28.856Z,101237.34
2022-08-20T15:32:30.367Z,101235.09
2022-08-20T15:37:31.755Z,101225.66
2022-08-20T15:42:33.282Z,101229.66
2022-08-20T15:47:35.799Z,101237.97
2022-08-20T15:52:42.120Z,101221.69
2022-08-20T15:57:54.202Z,101236.78
2022-08-20T16:03:20.648Z,101224.00
2022-08-20T16:08:49.187Z,101229.09
2022-08-20T16:13:53.511Z,101228.97
2022-08-20T16:18:55.055Z,101231.72
2022-08-20T16:23:56.631Z,101235.41
2022-08-20T16:29:02.689Z,101236.06
2022-08-20T16:34:34.059Z,101228.09
2022-08-20T16:39:49.725Z,101240.69
2022-08-20T16:44:53.313Z,101242.09
2022-08-20T16:50:01.408Z,101228.50
2022-08-20T16:55:03.004Z,101231.44
2022-08-20T17:00:15.270Z,101231.19
2022-08-20T17:05:16.854Z,101231.47
2022-08-20T17:10:24.487Z,101233.66
2022-08-20T17:15:28.321Z,101237.84
2022-08-20T17:20:29.847Z,101239.06
2022-08-20T17:25:37.467Z,101238.13
2022-08-20T17:30:39.511Z,101246.63
2022-08-20T17:35:42.991Z,101245.88
2022-08-20T17:40:46.035Z,101242.78
2022-08-20T17:45:47.626Z,101240.13
2022-08-20T17:50:50.062Z,101244.34
2022-08-20T17:56:02.082Z,101235.06
2022-08-20T18:01:03.699Z,101246.28
2022-08-20T18:06:29.837Z,101237.38
2022-08-20T18:11:36.775Z,101231.78
2022-08-20T18:16:56.202Z,101238.81
2022-08-20T18:22:16.612Z,101240.13
2022-08-20T18:27:18.172Z,101244.06
2022-08-20T18:32:30.907Z,101248.00
2022-08-20T18:37:32.415Z,101245.44
2022-08-20T18:42:35.618Z,101244.19
2022-08-20T18:47:37.041Z,101246.53
2022-08-20T18:52:40.532Z,101251.00
2022-08-20T18:58:02.639Z,101240.91
2022-08-20T19:03:06.845Z,101247.19
2022-08-20T19:08:08.361Z,101240.47
2022-08-20T19:13:42.512Z,101248.09
2022-08-20T19:18:54.346Z,101241.75
2022-08-20T19:23:56.812Z,101243.16
2022-08-20T19:29:02.770Z,101242.47
2022-08-20T19:34:19.065Z,101243.31
2022-08-20T19:39:23.927Z,101237.81
2022-08-20T19:44:38.222Z,101243.63
2022-08-20T19:50:06.967Z,101237.72
2022-08-20T19:55:18.373Z,101226.94
2022-08-20T20:00:19.932Z,101232.25
2022-08-20T20:05:21.513Z,101229.88
2022-08-20T20:10:36.068Z,101225.53
2022-08-20T20:15:37.900Z,101231.69
2022-08-20T20:20:57.736Z,101235.81
2022-08-20T20:26:01.861Z,101230.19
2022-08-20T20:31:12.176Z,101224.38
2022-08-20T20:36:16.233Z,101226.69
2022-08-20T20:41:20.501Z,101211.28
2022-08-20T20:46:23.894Z,101207.91
2022-08-20T20:51:29.112Z,101201.06
2022-08-20T20:57:06.564Z,101204.09
2022-08-20T21:02:08.139Z,101206.53
2022-08-20T21:07:11.429Z,101205.09
2022-08-20T21:12:13.612Z,101201.88
2022-08-20T21:17:20.779Z,101202.03
2022-08-20T21:22:22.310Z,101193.94
2022-08-20T21:27:25.131Z,101202.00
2022-08-20T21:32:26.912Z,101193.50
2022-08-20T21:37:28.582Z,101191.44
2022-08-20T21:42:30.103Z,101188.56
2022-08-20T21:47:31.702Z,101195.06
2022-08-20T21:52:33.315Z,101193.50
2022-08-20T21:57:37.115Z,101198.19
2022-08-20T22:02:38.630Z,101200.59
2022-08-20T22:07:41.945Z,101192.53
2022-08-20T22:12:43.762Z,101187.38
2022-08-20T22:17:45.279Z,101184.00
2022-08-20T22:22:46.870Z,101184.22
2022-08-20T22:27:48.375Z,101187.63
2022-08-20T22:32:51.915Z,101187.50
2022-08-20T22:37:53.980Z,101188.22
2022-08-20T22:42:55.505Z,101181.38
2022-08-20T22:47:57.054Z,101177.91
2022-08-20T22:52:58.952Z,101192.69
2022-08-20T22:58:00.934Z,101177.41
2022-08-20T23:03:02.420Z,101174.66
2022-08-20T23:08:03.947Z,101180.69
2022-08-20T23:13:06.048Z,101167.09
2022-08-20T23:18:10.659Z,101171.41
2022-08-20T23:23:12.238Z,101172.00
2022-08-20T23:28:13.806Z,101167.47
2022-08-20T23:33:15.568Z,101162.75
2022-08-20T23:38:17.162Z,101173.97
2022-08-20T23:43:18.952Z,101171.53
2022-08-20T23:48:20.955Z,101164.22
2022-08-20T23:53:22.482Z,101153.03
2022-08-20T23:58:23.990Z,101161.22
